sensor_id;sensor_type;location;lat;lon;timestamp;pressure;altitude;pressure_sealevel;temperature;humidity
818;BME280;391;51.052;6.954;2022-09-17T00:00:48;100770.16;;;11.88;79.04
818;BME280;391;51.052;6.954;2022-09-17T00:02:52;100772.75;;;11.87;78.66
818;BME280;391;51.052;6.954;2022-09-17T00:04:58;100764.66;;;11.78;79.50
818;BME280;391;51.052;6.954;2022-09-17T00:07:01;100769.34;;;11.91;78.59
818;BME280;391;51.052;6.954;2022-09-17T00:09:06;100762.09;;;11.79;79.21
818;BME280;391;51.052;6.954;2022-09-17T00:11:11;100762.59;;;11.64;79.40
818;BME280;391;51.052;6.954;2022-09-17T00:13:15;100755.59;;;11.63;79.86
818;BME280;391;51.052;6.954;2022-09-17T00:15:19;100761.91;;;11.72;79.97
818;BME280;391;51.052;6.954;2022-09-17T00:17:22;100764.66;;;11.76;80.16
818;BME280;391;51.052;6.954;2022-09-17T00:19:26;100762.94;;;11.78;79.60
818;BME280;391;51.052;6.954;2022-09-17T00:21:31;100765.31;;;11.69;80.05
818;BME280;391;51.052;6.954;2022-09-17T00:23:34;100769.53;;;11.64;80.24
818;BME280;391;51.052;6.954;2022-09-17T00:25:39;100768.50;;;11.57;81.01
818;BME280;391;51.052;6.954;2022-09-17T00:27:42;100770.72;;;11.75;80.60
818;BME280;391;51.052;6.954;2022-09-17T00:29:47;100765.41;;;11.72;80.61
818;BME280;391;51.052;6.954;2022-09-17T00:31:50;100766.03;;;11.63;80.59
818;BME280;391;51.052;6.954;2022-09-17T00:33:53;100745.84;;;11.56;81.18
818;BME280;391;51.052;6.954;2022-09-17T00:35:58;100761.72;;;11.65;80.92
818;BME280;391;51.052;6.954;2022-09-17T00:38:03;100760.91;;;11.66;81.23
818;BME280;391;51.052;6.954;2022-09-17T00:40:08;100765.22;;;11.64;81.45
818;BME280;391;51.052;6.954;2022-09-17T00:42:12;100765.53;;;11.77;81.22
818;BME280;391;51.052;6.954;2022-09-17T00:44:45;100760.06;;;11.69;81.04
818;BME280;391;51.052;6.954;2022-09-17T00:46:49;100768.59;;;11.62;81.56
818;BME280;391;51.052;6.954;2022-09-17T00:48:56;100773.88;;;11.63;81.71
818;BME280;391;51.052;6.954;2022-09-17T00:51:01;100759.81;;;11.58;81.70
818;BME280;391;51.052;6.954;2022-09-17T00:53:10;100766.19;;;11.69;81.54
818;BME280;391;51.052;6.954;2022-09-17T00:55:17;100772.56;;;11.81;81.02
818;BME280;391;51.052;6.954;2022-09-17T00:57:23;100755.94;;;11.76;81.38
818;BME280;391;51.052;6.954;2022-09-17T00:59:27;100765.63;;;11.81;81.34
818;BME280;391;51.052;6.954;2022-09-17T01:01:31;100761.91;;;11.72;81.34
818;BME280;391;51.052;6.954;2022-09-17T01:03:34;100767.53;;;11.87;81.42
818;BME280;391;51.052;6.954;2022-09-17T01:05:42;100776.16;;;11.84;80.91
818;BME280;391;51.052;6.954;2022-09-17T01:08:01;100775.97;;;11.77;81.22
818;BME280;391;51.052;6.954;2022-09-17T01:10:15;100774.34;;;11.82;81.37
818;BME280;391;51.052;6.954;2022-09-17T01:12:35;100784.81;;;11.82;81.26
818;BME280;391;51.052;6.954;2022-09-17T01:14:54;100780.34;;;11.78;81.70
818;BME280;391;51.052;6.954;2022-09-17T01:17:09;100783.13;;;11.84;81.38
818;BME280;391;51.052;6.954;2022-09-17T01:19:30;100785.81;;;11.87;81.19
818;BME280;391;51.052;6.954;2022-09-17T01:21:47;100786.06;;;11.97;81.72
818;BME280;391;51.052;6.954;2022-09-17T01:24:32;100784.53;;;12.07;81.21
818;BME280;391;51.052;6.954;2022-09-17T01:27:15;100780.38;;;12.15;81.37
818;BME280;391;51.052;6.954;2022-09-17T01:29:38;100785.41;;;12.06;81.34
818;BME280;391;51.052;6.954;2022-09-17T01:31:51;100786.31;;;12.08;81.41
818;BME280;391;51.052;6.954;2022-09-17T01:33:59;100789.88;;;12.11;81.50
818;BME280;391;51.052;6.954;2022-09-17T01:36:21;100786.41;;;12.12;80.81
818;BME280;391;51.052;6.954;2022-09-17T01:38:27;100800.28;;;12.10;80.81
818;BME280;391;51.052;6.954;2022-09-17T01:40:37;100804.47;;;12.02;80.84
818;BME280;391;51.052;6.954;2022-09-17T01:42:47;100802.53;;;11.95;80.89
818;BME280;391;51.052;6.954;2022-09-17T01:44:58;100796.34;;;11.90;81.54
818;BME280;391;51.052;6.954;2022-09-17T01:47:08;100792.06;;;11.93;81.23
818;BME280;391;51.052;6.954;2022-09-17T01:49:22;100794.56;;;11.89;81.67
818;BME280;391;51.052;6.954;2022-09-17T01:51:29;100800.53;;;11.83;81.65
818;BME280;391;51.052;6.954;2022-09-17T01:53:40;100798.81;;;11.84;81.83
818;BME280;391;51.052;6.954;2022-09-17T01:55:47;100814.44;;;11.82;81.26
818;BME280;391;51.052;6.954;2022-09-17T01:57:56;100804.41;;;11.66;81.75
818;BME280;391;51.052;6.954;2022-09-17T02:00:06;100807.75;;;11.60;82.42
818;BME280;391;51.052;6.954;2022-09-17T02:02:17;100804.91;;;11.51;82.58
818;BME280;391;51.052;6.954;2022-09-17T02:04:25;100806.81;;;11.58;82.82
818;BME280;391;51.052;6.954;2022-09-17T02:06:36;100799.56;;;11.47;83.08
818;BME280;391;51.052;6.954;2022-09-17T02:08:44;100793.41;;;11.45;82.84
818;BME280;391;51.052;6.954;2022-09-17T02:10:54;100804.63;;;11.41;83.10
818;BME280;391;51.052;6.954;2022-09-17T02:13:00;100800.38;;;11.46;83.46
818;BME280;391;51.052;6.954;2022-09-17T02:15:07;100797.63;;;11.40;83.32
818;BME280;391;51.052;6.954;2022-09-17T02:17:18;100805.75;;;11.50;83.46
818;BME280;391;51.052;6.954;2022-09-17T02:19:26;100796.94;;;11.47;83.23
818;BME280;391;51.052;6.954;2022-09-17T02:21:37;100801.09;;;11.39;83.55
818;BME280;391;51.052;6.954;2022-09-17T02:23:50;100785.44;;;11.40;83.84
818;BME280;391;51.052;6.954;2022-09-17T02:25:58;100801.28;;;11.46;83.35
818;BME280;391;51.052;6.954;2022-09-17T02:28:08;100756.22;;;11.21;83.59
818;BME280;391;51.052;6.954;2022-09-17T02:30:14;100805.75;;;11.50;83.67
818;BME280;391;51.052;6.954;2022-09-17T02:32:19;100806.66;;;11.52;83.72
818;BME280;391;51.052;6.954;2022-09-17T02:34:22;100799.84;;;11.57;83.58
818;BME280;391;51.052;6.954;2022-09-17T02:36:29;100802.47;;;11.59;84.05
818;BME280;391;51.052;6.954;2022-09-17T02:38:33;100793.81;;;11.61;84.03
818;BME280;391;51.052;6.954;2022-09-17T02:40:43;100811.25;;;11.61;84.50
818;BME280;391;51.052;6.954;2022-09-17T02:43:06;100799.72;;;11.53;84.24
818;BME280;391;51.052;6.954;2022-09-17T02:45:15;100805.13;;;11.60;84.59
818;BME280;391;51.052;6.954;2022-09-17T02:47:41;100812.91;;;11.57;84.17
818;BME280;391;51.052;6.954;2022-09-17T02:50:00;100808.66;;;11.62;84.47
818;BME280;391;51.052;6.954;2022-09-17T02:52:12;100808.78;;;11.67;84.28
818;BME280;391;51.052;6.954;2022-09-17T02:54:24;100806.03;;;11.61;84.45
818;BME280;391;51.052;6.954;2022-09-17T02:56:39;100805.13;;;11.60;84.37
818;BME280;391;51.052;6.954;2022-09-17T02:58:51;100804.97;;;11.54;84.68
818;BME280;391;51.052;6.954;2022-09-17T03:01:01;100791.19;;;11.60;84.38
818;BME280;391;51.052;6.954;2022-09-17T03:03:11;100801.84;;;11.67;84.19
818;BME280;391;51.052;6.954;2022-09-17T03:05:17;100800.25;;;11.73;84.41
818;BME280;391;51.052;6.954;2022-09-17T03:07:22;100789.63;;;11.66;83.96
818;BME280;391;51.052;6.954;2022-09-17T03:09:25;100802.03;;;11.74;83.99
818;BME280;391;51.052;6.954;2022-09-17T03:11:29;100803.69;;;11.72;83.80
818;BME280;391;51.052;6.954;2022-09-17T03:13:32;100801.06;;;11.70;83.72
818;BME280;391;51.052;6.954;2022-09-17T03:15:36;100806.03;;;11.61;83.86
818;BME280;391;51.052;6.954;2022-09-17T03:17:40;100812.09;;;11.61;84.14
818;BME280;391;51.052;6.954;2022-09-17T03:19:44;100814.78;;;11.63;83.70
818;BME280;391;51.052;6.954;2022-09-17T03:21:48;100817.88;;;11.48;83.78
818;BME280;391;51.052;6.954;2022-09-17T03:23:51;100820.50;;;11.48;84.38
818;BME280;391;51.052;6.954;2022-09-17T03:25:55;100822.25;;;11.49;83.54
818;BME280;391;51.052;6.954;2022-09-17T03:27:58;100819.59;;;11.48;83.32
818;BME280;391;51.052;6.954;2022-09-17T03:30:02;100814.53;;;11.54;83.57
818;BME280;391;51.052;6.954;2022-09-17T03:32:05;100812.53;;;11.44;83.10
818;BME280;391;51.052;6.954;2022-09-17T03:34:09;100814.06;;;11.36;83.59
818;BME280;391;51.052;6.954;2022-09-17T03:36:14;100816.13;;;11.49;83.20
818;BME280;391;51.052;6.954;2022-09-17T03:38:17;100800.88;;;11.31;82.82
818;BME280;391;51.052;6.954;2022-09-17T03:40:21;100813.19;;;11.37;83.51
818;BME280;391;51.052;6.954;2022-09-17T03:42:24;100805.44;;;11.40;83.25
818;BME280;391;51.052;6.954;2022-09-17T03:44:28;100819.44;;;11.42;83.25
818;BME280;391;51.052;6.954;2022-09-17T03:46:31;100815.94;;;11.41;83.63
818;BME280;391;51.052;6.954;2022-09-17T03:48:35;100816.25;;;11.53;83.61
818;BME280;391;51.052;6.954;2022-09-17T03:50:41;100819.59;;;11.48;83.31
818;BME280;391;51.052;6.954;2022-09-17T03:52:46;100823.38;;;11.59;83.04
818;BME280;391;51.052;6.954;2022-09-17T03:54:50;100823.38;;;11.59;83.06
818;BME280;391;51.052;6.954;2022-09-17T03:56:53;100798.47;;;11.39;82.64
818;BME280;391;51.052;6.954;2022-09-17T03:58:57;100824.84;;;11.49;83.04
818;BME280;391;51.052;6.954;2022-09-17T04:01:01;100810.06;;;11.50;82.84
818;BME280;391;51.052;6.954;2022-09-17T04:03:06;100823.25;;;11.54;83.00
818;BME280;391;51.052;6.954;2022-09-17T04:05:09;100820.56;;;11.51;82.73
818;BME280;391;51.052;6.954;2022-09-17T04:07:12;100816.94;;;11.46;83.40
818;BME280;391;51.052;6.954;2022-09-17T04:09:17;100815.13;;;11.44;83.37
818;BME280;391;51.052;6.954;2022-09-17T04:11:21;100820.41;;;11.45;84.17
818;BME280;391;51.052;6.954;2022-09-17T04:13:24;100820.56;;;11.51;83.83
818;BME280;391;51.052;6.954;2022-09-17T04:15:31;100828.56;;;11.57;83.69
818;BME280;391;51.052;6.954;2022-09-17T04:17:35;100827.53;;;11.51;83.67
818;BME280;391;51.052;6.954;2022-09-17T04:19:39;100831.78;;;11.47;84.03
818;BME280;391;51.052;6.954;2022-09-17T04:21:42;100836.41;;;11.57;84.07
818;BME280;391;51.052;6.954;2022-09-17T04:23:45;100831.09;;;11.54;83.80
818;BME280;391;51.052;6.954;2022-09-17T04:25:50;100839.75;;;11.53;84.51
818;BME280;391;51.052;6.954;2022-09-17T04:27:53;100839.03;;;11.59;84.00
818;BME280;391;51.052;6.954;2022-09-17T04:29:57;100832.91;;;11.58;84.10
818;BME280;391;51.052;6.954;2022-09-17T04:32:01;100837.38;;;11.62;83.98
818;BME280;391;51.052;6.954;2022-09-17T04:34:04;100848.78;;;11.64;83.73
818;BME280;391;51.052;6.954;2022-09-17T04:36:08;100839.00;;;11.57;83.54
818;BME280;391;51.052;6.954;2022-09-17T04:38:11;100845.94;;;11.57;83.93
818;BME280;391;51.052;6.954;2022-09-17T04:40:19;100839.63;;;11.49;83.63
818;BME280;391;51.052;6.954;2022-09-17T04:42:24;100840.28;;;11.40;84.44
818;BME280;391;51.052;6.954;2022-09-17T04:44:27;100836.03;;;11.44;84.21
818;BME280;391;51.052;6.954;2022-09-17T04:46:31;100841.41;;;11.50;84.04
818;BME280;391;51.052;6.954;2022-09-17T04:48:34;100835.97;;;11.42;83.69
818;BME280;391;51.052;6.954;2022-09-17T04:50:37;100847.13;;;11.35;84.17
818;BME280;391;51.052;6.954;2022-09-17T04:52:41;100846.97;;;11.31;83.90
818;BME280;391;51.052;6.954;2022-09-17T04:54:45;100847.19;;;11.38;84.62
818;BME280;391;51.052;6.954;2022-09-17T04:56:48;100849.22;;;11.50;84.09
818;BME280;391;51.052;6.954;2022-09-17T04:58:54;100852.88;;;11.55;83.75
818;BME280;391;51.052;6.954;2022-09-17T05:00:58;100862.44;;;11.56;83.71
818;BME280;391;51.052;6.954;2022-09-17T05:03:02;100858.03;;;11.53;83.23
818;BME280;391;51.052;6.954;2022-09-17T05:05:05;100859.22;;;11.33;83.83
818;BME280;391;51.052;6.954;2022-09-17T05:07:09;100855.91;;;11.39;84.04
818;BME280;391;51.052;6.954;2022-09-17T05:09:15;100856.00;;;11.42;83.84
818;BME280;391;51.052;6.954;2022-09-17T05:11:18;100868.44;;;11.52;83.69
818;BME280;391;51.052;6.954;2022-09-17T05:13:22;100866.63;;;11.49;83.25
818;BME280;391;51.052;6.954;2022-09-17T05:15:26;100865.88;;;11.53;83.66
818;BME280;391;51.052;6.954;2022-09-17T05:17:30;100868.69;;;11.61;83.65
818;BME280;391;51.052;6.954;2022-09-17T05:19:33;100858.88;;;11.52;83.43
818;BME280;391;51.052;6.954;2022-09-17T05:21:37;100859.53;;;11.44;83.20
818;BME280;391;51.052;6.954;2022-09-17T05:23:40;100857.56;;;11.37;83.34
818;BME280;391;51.052;6.954;2022-09-17T05:25:43;100854.22;;;11.41;83.55
818;BME280;391;51.052;6.954;2022-09-17T05:27:47;100848.31;;;11.48;83.39
818;BME280;391;51.052;6.954;2022-09-17T05:29:50;100856.19;;;11.49;82.84
818;BME280;391;51.052;6.954;2022-09-17T05:31:55;100867.50;;;11.48;82.88
818;BME280;391;51.052;6.954;2022-09-17T05:33:58;100861.28;;;11.45;82.67
818;BME280;391;51.052;6.954;2022-09-17T05:36:02;100871.81;;;11.48;82.76
818;BME280;391;51.052;6.954;2022-09-17T05:38:05;100867.50;;;11.50;82.46
818;BME280;391;51.052;6.954;2022-09-17T05:40:09;100869.88;;;11.41;82.42
818;BME280;391;51.052;6.954;2022-09-17T05:42:13;100867.41;;;11.45;82.65
818;BME280;391;51.052;6.954;2022-09-17T05:44:17;100874.50;;;11.51;82.31
818;BME280;391;51.052;6.954;2022-09-17T05:46:20;100883.84;;;11.43;82.15
818;BME280;391;51.052;6.954;2022-09-17T05:48:25;100883.69;;;11.37;82.71
818;BME280;391;51.052;6.954;2022-09-17T05:50:29;100879.25;;;11.34;82.25
818;BME280;391;51.052;6.954;2022-09-17T05:52:33;100887.31;;;11.42;82.27
818;BME280;391;51.052;6.954;2022-09-17T05:54:36;100890.03;;;11.46;82.31
818;BME280;391;51.052;6.954;2022-09-17T05:56:39;100890.13;;;11.49;82.45
818;BME280;391;51.052;6.954;2022-09-17T05:58:43;100891.97;;;11.53;82.32
818;BME280;391;51.052;6.954;2022-09-17T06:00:46;100893.88;;;11.59;82.39
818;BME280;391;51.052;6.954;2022-09-17T06:02:53;100898.03;;;11.52;82.09
818;BME280;391;51.052;6.954;2022-09-17T06:04:58;100895.66;;;11.60;81.74
818;BME280;391;51.052;6.954;2022-09-17T06:07:03;100899.75;;;11.50;82.26
818;BME280;391;51.052;6.954;2022-09-17T06:09:07;100905.19;;;11.59;81.56
818;BME280;391;51.052;6.954;2022-09-17T06:11:11;100906.03;;;11.58;81.81
818;BME280;391;51.052;6.954;2022-09-17T06:13:14;100903.81;;;11.71;81.65
818;BME280;391;51.052;6.954;2022-09-17T06:15:18;100912.50;;;11.71;81.44
818;BME280;391;51.052;6.954;2022-09-17T06:17:21;100903.69;;;11.67;81.64
818;BME280;391;51.052;6.954;2022-09-17T06:19:25;100900.91;;;11.61;81.96
818;BME280;391;51.052;6.954;2022-09-17T06:21:30;100902.13;;;11.73;81.61
818;BME280;391;51.052;6.954;2022-09-17T06:23:34;100898.50;;;11.69;81.46
818;BME280;391;51.052;6.954;2022-09-17T06:25:38;100895.81;;;11.66;81.62
818;BME280;391;51.052;6.954;2022-09-17T06:27:41;100904.94;;;11.80;81.28
818;BME280;391;51.052;6.954;2022-09-17T06:29:45;100914.66;;;11.86;80.61
818;BME280;391;51.052;6.954;2022-09-17T06:31:48;100910.44;;;11.91;80.85
818;BME280;391;51.052;6.954;2022-09-17T06:33:52;100924.31;;;11.88;80.39
818;BME280;391;51.052;6.954;2022-09-17T06:35:56;100906.91;;;11.89;80.89
818;BME280;391;51.052;6.954;2022-09-17T06:38:04;100915.22;;;12.07;81.45
818;BME280;391;51.052;6.954;2022-09-17T06:40:08;100920.25;;;11.99;81.54
818;BME280;391;51.052;6.954;2022-09-17T06:42:12;100924.09;;;11.81;81.43
818;BME280;391;51.052;6.954;2022-09-17T06:44:15;100914.25;;;11.71;81.87
818;BME280;391;51.052;6.954;2022-09-17T06:46:19;100929.50;;;11.87;81.69
818;BME280;391;51.052;6.954;2022-09-17T06:48:23;100926.03;;;11.88;81.33
818;BME280;391;51.052;6.954;2022-09-17T06:50:27;100924.38;;;11.90;80.98
818;BME280;391;51.052;6.954;2022-09-17T06:52:32;100926.69;;;11.79;81.19
818;BME280;391;51.052;6.954;2022-09-17T06:54:37;100933.69;;;11.80;81.76
818;BME280;391;51.052;6.954;2022-09-17T06:56:40;100931.09;;;11.82;81.52
818;BME280;391;51.052;6.954;2022-09-17T06:58:43;100945.78;;;11.77;81.90
818;BME280;391;51.052;6.954;2022-09-17T07:00:48;100943.91;;;11.73;81.60
818;BME280;391;51.052;6.954;2022-09-17T07:02:54;100945.50;;;11.69;80.88
818;BME280;391;51.052;6.954;2022-09-17T07:04:58;100941.25;;;11.71;81.29
818;BME280;391;51.052;6.954;2022-09-17T07:07:02;100946.31;;;11.66;81.46
818;BME280;391;51.052;6.954;2022-09-17T07:09:07;100935.88;;;11.66;80.68
818;BME280;391;51.052;6.954;2022-09-17T07:11:14;100939.31;;;11.65;81.05
818;BME280;391;51.052;6.954;2022-09-17T07:13:18;100941.38;;;11.76;80.64
818;BME280;391;51.052;6.954;2022-09-17T07:15:24;100939.22;;;11.92;80.76
818;BME280;391;51.052;6.954;2022-09-17T07:17:28;100945.25;;;11.90;80.42
818;BME280;391;51.052;6.954;2022-09-17T07:19:32;100935.66;;;11.90;80.00
818;BME280;391;51.052;6.954;2022-09-17T07:21:36;100940.06;;;11.91;79.56
818;BME280;391;51.052;6.954;2022-09-17T07:23:39;100941.16;;;11.99;79.80
818;BME280;391;51.052;6.954;2022-09-17T07:25:43;100949.03;;;12.01;78.63
818;BME280;391;51.052;6.954;2022-09-17T07:27:48;100941.00;;;11.93;78.76
818;BME280;391;51.052;6.954;2022-09-17T07:29:51;100943.69;;;11.96;79.07
818;BME280;391;51.052;6.954;2022-09-17T07:31:54;100939.31;;;11.97;79.15
818;BME280;391;51.052;6.954;2022-09-17T07:33:59;100936.91;;;12.03;79.00
818;BME280;391;51.052;6.954;2022-09-17T07:36:04;100950.22;;;12.13;78.61
818;BME280;391;51.052;6.954;2022-09-17T07:38:08;100939.91;;;12.18;77.92
818;BME280;391;51.052;6.954;2022-09-17T07:40:11;100945.72;;;12.08;78.12
818;BME280;391;51.052;6.954;2022-09-17T07:42:15;100938.88;;;12.13;77.83
818;BME280;391;51.052;6.954;2022-09-17T07:44:20;100933.25;;;12.31;77.38
818;BME280;391;51.052;6.954;2022-09-17T07:46:23;100913.78;;;12.19;77.39
818;BME280;391;51.052;6.954;2022-09-17T07:48:28;100935.41;;;12.48;77.20
818;BME280;391;51.052;6.954;2022-09-17T07:50:31;100934.59;;;12.49;76.39
818;BME280;391;51.052;6.954;2022-09-17T07:52:35;100946.56;;;12.41;76.48
818;BME280;391;51.052;6.954;2022-09-17T07:54:39;100942.44;;;12.49;76.42
818;BME280;391;51.052;6.954;2022-09-17T07:56:42;100944.50;;;12.62;76.04
818;BME280;391;51.052;6.954;2022-09-17T07:58:46;100947.94;;;12.61;75.66
818;BME280;391;51.052;6.954;2022-09-17T08:00:51;100940.09;;;12.61;75.83
818;BME280;391;51.052;6.954;2022-09-17T08:02:55;100930.56;;;12.63;75.36
818;BME280;391;51.052;6.954;2022-09-17T08:04:59;100943.59;;;12.62;75.02
818;BME280;391;51.052;6.954;2022-09-17T08:07:02;100942.03;;;12.70;75.16
818;BME280;391;51.052;6.954;2022-09-17T08:09:06;100931.81;;;12.81;74.46
818;BME280;391;51.052;6.954;2022-09-17T08:11:14;100938.78;;;12.79;74.29
818;BME280;391;51.052;6.954;2022-09-17T08:13:38;100941.53;;;12.85;73.29
818;BME280;391;51.052;6.954;2022-09-17T08:15:41;100929.59;;;12.97;73.43
818;BME280;391;51.052;6.954;2022-09-17T08:17:46;100930.72;;;13.08;73.10
818;BME280;391;51.052;6.954;2022-09-17T08:19:50;100933.41;;;13.10;72.12
818;BME280;391;51.052;6.954;2022-09-17T08:21:53;100938.69;;;13.13;71.74
818;BME280;391;51.052;6.954;2022-09-17T08:23:57;100930.13;;;13.20;71.19
818;BME280;391;51.052;6.954;2022-09-17T08:26:01;100931.94;;;13.22;70.70
818;BME280;391;51.052;6.954;2022-09-17T08:28:04;100943.38;;;13.27;70.02
818;BME280;391;51.052;6.954;2022-09-17T08:30:08;100932.09;;;13.32;69.37
818;BME280;391;51.052;6.954;2022-09-17T08:32:12;100925.16;;;13.32;69.32
818;BME280;391;51.052;6.954;2022-09-17T08:34:17;100938.28;;;13.35;68.32
818;BME280;391;51.052;6.954;2022-09-17T08:36:20;100942.66;;;13.35;68.36
818;BME280;391;51.052;6.954;2022-09-17T08:38:26;100942.63;;;13.33;67.85
818;BME280;391;51.052;6.954;2022-09-17T08:40:30;100929.56;;;13.35;67.73
818;BME280;391;51.052;6.954;2022-09-17T08:42:37;100939.50;;;13.51;67.51
818;BME280;391;51.052;6.954;2022-09-17T08:44:45;100939.94;;;13.73;66.97
818;BME280;391;51.052;6.954;2022-09-17T08:46:58;100940.72;;;13.68;66.24
818;BME280;391;51.052;6.954;2022-09-17T08:49:06;100946.75;;;13.64;66.43
818;BME280;391;51.052;6.954;2022-09-17T08:51:27;100938.16;;;13.71;65.80
818;BME280;391;51.052;6.954;2022-09-17T08:53:41;100936.59;;;13.82;65.86
818;BME280;391;51.052;6.954;2022-09-17T08:55:57;100957.66;;;13.87;65.92
818;BME280;391;51.052;6.954;2022-09-17T08:58:14;100945.31;;;13.79;65.61
818;BME280;391;51.052;6.954;2022-09-17T09:00:23;100948.88;;;13.83;65.23
818;BME280;391;51.052;6.954;2022-09-17T09:02:40;100949.75;;;13.84;65.05
818;BME280;391;51.052;6.954;2022-09-17T09:05:00;100947.03;;;13.77;64.95
818;BME280;391;51.052;6.954;2022-09-17T09:07:08;100940.88;;;13.77;64.70
818;BME280;391;51.052;6.954;2022-09-17T09:09:15;100944.13;;;13.62;64.53
818;BME280;391;51.052;6.954;2022-09-17T09:11:22;100955.44;;;13.61;65.49
818;BME280;391;51.052;6.954;2022-09-17T09:13:30;100945.13;;;13.70;66.01
818;BME280;391;51.052;6.954;2022-09-17T09:15:37;100944.47;;;13.81;64.72
818;BME280;391;51.052;6.954;2022-09-17T09:17:44;100937.59;;;13.87;63.52
818;BME280;391;51.052;6.954;2022-09-17T09:19:49;100939.66;;;14.03;63.69
818;BME280;391;51.052;6.954;2022-09-17T09:22:02;100942.06;;;13.93;63.21
818;BME280;391;51.052;6.954;2022-09-17T09:24:15;100947.34;;;13.96;63.87
818;BME280;391;51.052;6.954;2022-09-17T09:26:23;100952.72;;;14.02;63.51
818;BME280;391;51.052;6.954;2022-09-17T09:28:49;100948.41;;;14.05;62.76
818;BME280;391;51.052;6.954;2022-09-17T09:31:04;100945.16;;;14.20;61.84
818;BME280;391;51.052;6.954;2022-09-17T09:33:13;100955.53;;;14.14;61.31
818;BME280;391;51.052;6.954;2022-09-17T09:35:20;100951.34;;;14.22;61.04
818;BME280;391;51.052;6.954;2022-09-17T09:37:28;100938.28;;;14.26;60.17
818;BME280;391;51.052;6.954;2022-09-17T09:39:34;100943.00;;;14.46;60.20
818;BME280;391;51.052;6.954;2022-09-17T09:41:49;100929.88;;;14.44;60.16
818;BME280;391;51.052;6.954;2022-09-17T09:43:59;100926.56;;;14.54;60.02
818;BME280;391;51.052;6.954;2022-09-17T09:46:26;100938.66;;;14.45;60.11
818;BME280;391;51.052;6.954;2022-09-17T09:48:38;100933.72;;;14.64;59.18
818;BME280;391;51.052;6.954;2022-09-17T09:51:02;100875.72;;;14.49;58.21
818;BME280;391;51.052;6.954;2022-09-17T09:53:21;100943.75;;;14.93;58.13
818;BME280;391;51.052;6.954;2022-09-17T09:55:41;100930.56;;;14.87;57.53
818;BME280;391;51.052;6.954;2022-09-17T09:57:54;100934.22;;;14.99;56.73
818;BME280;391;51.052;6.954;2022-09-17T10:00:23;100929.25;;;15.20;55.88
818;BME280;391;51.052;6.954;2022-09-17T10:02:28;100927.22;;;15.00;56.10
818;BME280;391;51.052;6.954;2022-09-17T10:04:31;100930.34;;;14.73;57.64
818;BME280;391;51.052;6.954;2022-09-17T10:06:35;100942.53;;;14.71;58.53
818;BME280;391;51.052;6.954;2022-09-17T10:08:40;100933.66;;;14.61;59.58
818;BME280;391;51.052;6.954;2022-09-17T10:10:57;100937.09;;;14.57;60.38
818;BME280;391;51.052;6.954;2022-09-17T10:13:06;100933.81;;;14.72;60.16
818;BME280;391;51.052;6.954;2022-09-17T10:15:24;100940.88;;;14.76;59.08
818;BME280;391;51.052;6.954;2022-09-17T10:17:28;100928.78;;;14.86;58.98
818;BME280;391;51.052;6.954;2022-09-17T10:19:31;100931.28;;;14.76;58.50
818;BME280;391;51.052;6.954;2022-09-17T10:21:37;100923.22;;;14.64;59.12
818;BME280;391;51.052;6.954;2022-09-17T10:23:42;100879.81;;;14.32;58.97
818;BME280;391;51.052;6.954;2022-09-17T10:25:46;100935.28;;;14.53;59.15
818;BME280;391;51.052;6.954;2022-09-17T10:27:52;100913.25;;;14.44;59.45
818;BME280;391;51.052;6.954;2022-09-17T10:30:02;100919.47;;;14.50;59.52
818;BME280;391;51.052;6.954;2022-09-17T10:32:14;100920.50;;;14.60;60.04
818;BME280;391;51.052;6.954;2022-09-17T10:34:19;100881.63;;;14.95;58.87
818;BME280;391;51.052;6.954;2022-09-17T10:36:38;100911.34;;;15.58;56.73
818;BME280;391;51.052;6.954;2022-09-17T10:38:43;100891.22;;;15.59;55.76
818;BME280;391;51.052;6.954;2022-09-17T10:40:47;100912.69;;;16.03;54.25
818;BME280;391;51.052;6.954;2022-09-17T10:43:21;100912.22;;;16.46;52.28
818;BME280;391;51.052;6.954;2022-09-17T10:45:26;100899.81;;;16.30;52.39
818;BME280;391;51.052;6.954;2022-09-17T10:47:35;100899.88;;;16.43;52.06
818;BME280;391;51.052;6.954;2022-09-17T10:49:45;100903.44;;;16.49;52.03
818;BME280;391;51.052;6.954;2022-09-17T10:51:50;100903.44;;;16.47;51.99
818;BME280;391;51.052;6.954;2022-09-17T10:54:14;100891.97;;;16.39;52.72
818;BME280;391;51.052;6.954;2022-09-17T10:56:25;100900.03;;;16.56;52.95
818;BME280;391;51.052;6.954;2022-09-17T10:58:46;100906.25;;;16.67;52.04
818;BME280;391;51.052;6.954;2022-09-17T11:01:00;100900.22;;;16.84;51.03
818;BME280;391;51.052;6.954;2022-09-17T11:03:20;100888.88;;;16.99;51.25
818;BME280;391;51.052;6.954;2022-09-17T11:06:03;100889.47;;;16.53;51.07
818;BME280;391;51.052;6.954;2022-09-17T11:08:19;100890.22;;;16.36;52.58
818;BME280;391;51.052;6.954;2022-09-17T11:10:32;100884.66;;;16.03;53.60
818;BME280;391;51.052;6.954;2022-09-17T11:12:50;100876.09;;;16.28;52.64
818;BME280;391;51.052;6.954;2022-09-17T11:15:05;100886.00;;;16.55;51.79
818;BME280;391;51.052;6.954;2022-09-17T11:17:29;100889.63;;;16.74;51.38
818;BME280;391;51.052;6.954;2022-09-17T11:19:44;100885.22;;;16.71;51.25
818;BME280;391;51.052;6.954;2022-09-17T11:21:52;100900.75;;;16.36;50.94
818;BME280;391;51.052;6.954;2022-09-17T11:26:55;100880.44;;;16.23;52.32
818;BME280;391;51.052;6.954;2022-09-17T11:29:11;100889.06;;;16.04;51.64
818;BME280;391;51.052;6.954;2022-09-17T11:31:32;100895.31;;;16.17;51.60
818;BME280;391;51.052;6.954;2022-09-17T11:36:07;100888.16;;;16.01;51.21
818;BME280;391;51.052;6.954;2022-09-17T11:38:17;100894.16;;;15.87;50.61
818;BME280;391;51.052;6.954;2022-09-17T11:40:26;100894.00;;;15.74;50.93
818;BME280;391;51.052;6.954;2022-09-17T11:42:38;100882.59;;;15.72;51.29
818;BME280;391;51.052;6.954;2022-09-17T11:44:50;100900.94;;;15.67;51.52
818;BME280;391;51.052;6.954;2022-09-17T11:47:01;100900.63;;;15.42;55.85
818;BME280;391;51.052;6.954;2022-09-17T11:49:12;100928.06;;;14.96;60.87